createdAt,value
2022-10-09T00:01:27.568Z,102355.03
2022-10-09T00:03:56.872Z,102362.06
2022-10-09T00:06:30.885Z,102355.00
2022-10-09T00:09:02.145Z,102357.41
2022-10-09T00:11:33.159Z,102354.78
2022-10-09T00:14:00.994Z,102354.69
2022-10-09T00:16:29.265Z,102357.13
2022-10-09T00:18:57.277Z,102358.66
2022-10-09T00:21:33.540Z,102366.50
2022-10-09T00:24:03.590Z,102358.44
2022-10-09T00:26:31.510Z,102361.22
2022-10-09T00:28:58.910Z,102361.94
2022-10-09T00:31:26.256Z,102368.75
2022-10-09T00:33:53.256Z,102366.88
2022-10-09T00:36:24.363Z,102357.19
2022-10-09T00:38:53.258Z,102364.00
2022-10-09T00:41:24.416Z,102364.00
2022-10-09T00:44:01.510Z,102359.56
2022-10-09T00:46:45.968Z,102362.06
2022-10-09T00:49:29.159Z,102361.97
2022-10-09T00:52:01.974Z,102357.47
2022-10-09T00:54:33.894Z,102353.81
2022-10-09T00:57:01.197Z,102366.81
2022-10-09T00:59:28.625Z,102358.88
2022-10-09T01:01:55.729Z,102357.09
2022-10-09T01:04:23.309Z,102353.53
2022-10-09T01:07:38.509Z,102356.00
2022-10-09T01:10:44.510Z,102354.16
2022-10-09T01:13:34.662Z,102355.00
2022-10-09T01:16:24.085Z,102353.13
2022-10-09T01:19:12.658Z,102349.56
2022-10-09T01:22:03.593Z,102343.31
2022-10-09T01:24:45.200Z,102358.06
2022-10-09T01:27:25.660Z,102353.59
2022-10-09T01:30:12.216Z,102343.00
2022-10-09T01:32:44.077Z,102345.41
2022-10-09T01:35:14.449Z,102346.19
2022-10-09T01:37:45.800Z,102346.91
2022-10-09T01:40:16.312Z,102341.53
2022-10-09T01:42:43.873Z,102342.41
2022-10-09T01:45:11.422Z,102342.31
2022-10-09T01:47:38.626Z,102335.16
2022-10-09T01:50:40.575Z,102343.88
2022-10-09T01:53:17.237Z,102338.53
2022-10-09T01:56:06.109Z,102333.94
2022-10-09T01:58:55.256Z,102324.25
2022-10-09T02:01:29.786Z,102323.28
2022-10-09T02:03:59.755Z,102318.91
2022-10-09T02:06:28.774Z,102318.75
2022-10-09T02:08:56.259Z,102315.25
2022-10-09T02:11:29.274Z,102316.91
2022-10-09T02:13:56.726Z,102316.84
2022-10-09T02:16:49.566Z,102321.19
2022-10-09T02:19:44.386Z,102320.16
2022-10-09T02:22:29.098Z,102313.91
2022-10-09T02:24:58.749Z,102310.34
2022-10-09T02:27:27.442Z,102309.47
2022-10-09T02:29:55.094Z,102312.81
2022-10-09T02:32:22.852Z,102312.69
2022-10-09T02:34:49.965Z,102305.63
2022-10-09T02:37:17.134Z,102306.28
2022-10-09T02:39:44.327Z,102299.22
2022-10-09T02:42:12.190Z,102300.13
2022-10-09T02:44:39.295Z,102302.63
2022-10-09T02:47:06.361Z,102304.41
2022-10-09T02:49:33.396Z,102300.81
2022-10-09T02:52:00.418Z,102300.81
2022-10-09T02:54:27.477Z,102299.84
2022-10-09T02:56:54.514Z,102303.34
2022-10-09T02:59:21.530Z,102296.34
2022-10-09T03:01:48.759Z,102289.28
2022-10-09T03:04:16.025Z,102298.78
2022-10-09T03:06:42.973Z,102289.16
2022-10-09T03:09:10.174Z,102289.97
2022-10-09T03:11:37.239Z,102291.69
2022-10-09T03:14:04.224Z,102285.63
2022-10-09T03:16:31.254Z,102289.06
2022-10-09T03:18:58.592Z,102282.94
2022-10-09T03:21:27.918Z,102283.78
2022-10-09T03:23:55.842Z,102282.81
2022-10-09T03:26:27.976Z,102274.03
2022-10-09T03:28:55.911Z,102281.78
2022-10-09T03:31:50.539Z,102273.81
2022-10-09T03:34:13.757Z,102282.44
2022-10-09T03:36:42.312Z,102277.97
2022-10-09T03:39:09.830Z,102277.97
2022-10-09T03:41:36.829Z,102275.28
2022-10-09T03:44:03.989Z,102269.91
2022-10-09T03:46:31.058Z,102265.44
2022-10-09T03:48:58.324Z,102269.75
2022-10-09T03:51:25.336Z,102271.38
2022-10-09T03:53:52.350Z,102273.13
2022-10-09T03:56:19.306Z,102267.75
2022-10-09T03:58:46.348Z,102269.41
2022-10-09T04:01:13.358Z,102270.25
2022-10-09T04:03:40.371Z,102274.66
2022-10-09T04:06:07.444Z,102281.47
2022-10-09T04:08:35.891Z,102280.53
2022-10-09T04:11:03.569Z,102278.75
2022-10-09T04:13:30.680Z,102275.19
2022-10-09T04:15:57.828Z,102279.53
2022-10-09T04:18:25.494Z,102280.41
2022-10-09T04:20:55.094Z,102275.94
2022-10-09T04:23:25.582Z,102275.84
2022-10-09T04:25:58.493Z,102264.41
2022-10-09T04:28:30.927Z,102270.44
2022-10-09T04:30:58.964Z,102275.59
2022-10-09T04:33:27.300Z,102272.84
2022-10-09T04:35:56.017Z,102265.84
2022-10-09T04:38:24.870Z,102269.22
2022-10-09T04:41:07.152Z,102268.16
2022-10-09T04:43:35.631Z,102257.72
2022-10-09T04:46:07.886Z,102259.44
2022-10-09T04:48:44.279Z,102266.31
2022-10-09T04:51:12.494Z,102254.84
2022-10-09T04:53:39.964Z,102261.78
2022-10-09T04:56:13.759Z,102263.34
2022-10-09T04:58:41.808Z,102270.28
2022-10-09T05:01:25.162Z,102259.72
2022-10-09T05:03:53.171Z,102257.09
2022-10-09T05:06:22.504Z,102250.84
2022-10-09T05:08:49.735Z,102250.84
2022-10-09T05:11:23.735Z,102249.13
2022-10-09T05:13:54.549Z,102244.66
2022-10-09T05:16:26.516Z,102238.63
2022-10-09T05:19:02.715Z,102239.44
2022-10-09T05:21:31.082Z,102238.50
2022-10-09T05:23:58.356Z,102244.53
2022-10-09T05:26:27.041Z,102242.66
2022-10-09T05:28:54.336Z,102235.66
2022-10-09T05:31:27.856Z,102237.38
2022-10-09T05:33:58.319Z,102242.59
2022-10-09T05:36:25.302Z,102238.13
2022-10-09T05:38:52.307Z,102236.34
2022-10-09T05:41:20.103Z,102230.31
2022-10-09T05:43:49.296Z,102232.91
2022-10-09T05:46:24.841Z,102228.59
2022-10-09T05:48:52.967Z,102236.47
2022-10-09T05:51:25.723Z,102232.09
2022-10-09T05:53:53.548Z,102234.63
2022-10-09T05:56:26.115Z,102230.31
2022-10-09T05:59:17.769Z,102234.84
2022-10-09T06:01:48.786Z,102235.66
2022-10-09T06:04:20.827Z,102231.44
2022-10-09T06:06:48.777Z,102227.16
2022-10-09T06:09:23.105Z,102237.78
2022-10-09T06:11:51.964Z,102234.47
2022-10-09T06:14:22.096Z,102232.88
2022-10-09T06:16:50.331Z,102227.78
2022-10-09T06:19:19.669Z,102228.00
2022-10-09T06:21:47.766Z,102229.84
2022-10-09T06:24:24.474Z,102235.34
2022-10-09T06:26:55.136Z,102235.47
2022-10-09T06:29:22.290Z,102240.09
2022-10-09T06:31:49.465Z,102234.19
2022-10-09T06:34:16.713Z,102236.09
2022-10-09T06:36:43.656Z,102237.28
2022-10-09T06:39:11.185Z,102231.34
2022-10-09T06:41:38.264Z,102236.00
2022-10-09T06:44:10.818Z,102241.47
2022-10-09T06:46:42.360Z,102243.44
2022-10-09T06:49:11.513Z,102236.78
2022-10-09T06:51:38.924Z,102234.38
2022-10-09T06:54:15.193Z,102237.38
2022-10-09T06:56:42.372Z,102235.09
2022-10-09T06:59:11.291Z,102239.81
2022-10-09T07:01:38.429Z,102244.47
2022-10-09T07:04:11.039Z,102239.53
2022-10-09T07:06:42.047Z,102236.34
2022-10-09T07:09:13.289Z,102237.59
2022-10-09T07:11:44.323Z,102241.34
2022-10-09T07:14:13.218Z,102241.66
2022-10-09T07:16:43.704Z,102235.97
2022-10-09T07:19:12.183Z,102234.50
2022-10-09T07:21:43.632Z,102230.50
2022-10-09T07:24:12.207Z,102229.13
2022-10-09T07:26:44.041Z,102237.47
2022-10-09T07:29:14.776Z,102237.84
2022-10-09T07:31:42.654Z,102240.88
2022-10-09T07:34:09.865Z,102241.16
2022-10-09T07:36:37.010Z,102244.19
2022-10-09T07:39:05.216Z,102235.81
2022-10-09T07:41:32.934Z,102238.88
2022-10-09T07:43:59.984Z,102233.19
2022-10-09T07:46:33.462Z,102240.47
2022-10-09T07:49:01.866Z,102234.78
2022-10-09T07:51:30.319Z,102233.41
2022-10-09T07:53:58.622Z,102234.72
2022-10-09T07:56:29.347Z,102243.09
2022-10-09T07:59:02.923Z,102235.56
2022-10-09T08:01:32.432Z,102235.03
2022-10-09T08:04:00.964Z,102228.44
2022-10-09T08:06:28.895Z,102227.91
2022-10-09T08:08:59.733Z,102227.28
2022-10-09T08:11:29.139Z,102217.22
2022-10-09T08:13:56.618Z,102221.13
2022-10-09T08:16:27.076Z,102221.47
2022-10-09T08:19:00.054Z,102210.41
2022-10-09T08:21:28.598Z,102216.91
2022-10-09T08:23:58.401Z,102211.91
2022-10-09T08:26:29.203Z,102213.06
2022-10-09T08:29:02.773Z,102210.88
2022-10-09T08:31:31.783Z,102209.41
2022-10-09T08:34:01.785Z,102214.94
2022-10-09T08:36:29.812Z,102203.81
2022-10-09T08:38:56.892Z,102201.41
2022-10-09T08:41:32.913Z,102203.56
2022-10-09T08:44:17.104Z,102199.41
2022-10-09T08:47:05.301Z,102198.00
2022-10-09T08:49:44.418Z,102190.38
2022-10-09T08:52:36.324Z,102188.81
2022-10-09T08:55:36.116Z,102188.28
2022-10-09T08:58:06.445Z,102185.13
2022-10-09T09:00:55.110Z,102180.94
2022-10-09T09:03:42.900Z,102183.91
2022-10-09T09:06:39.075Z,102175.19
2022-10-09T09:09:34.824Z,102167.69
2022-10-09T09:12:55.321Z,102166.16
2022-10-09T09:15:25.504Z,102161.84
2022-10-09T09:18:33.214Z,102163.97
2022-10-09T09:21:28.402Z,102156.19
2022-10-09T09:23:57.549Z,102157.19
2022-10-09T09:26:24.866Z,102150.34
2022-10-09T09:28:59.778Z,102146.97
2022-10-09T09:31:35.704Z,102140.03
2022-10-09T09:34:25.999Z,102138.41
2022-10-09T09:36:58.434Z,102135.88
2022-10-09T09:40:31.321Z,102124.53
2022-10-09T09:42:20.700Z,102134.31
2022-10-09T09:45:03.967Z,102116.75
2022-10-09T09:47:40.686Z,102114.19
2022-10-09T09:50:18.473Z,102115.16
2022-10-09T09:52:56.475Z,102116.13
2022-10-09T09:55:27.651Z,102113.63
2022-10-09T09:58:06.411Z,102101.38
2022-10-09T10:00:35.941Z,102106.78
2022-10-09T10:03:09.412Z,102098.94
2022-10-09T10:05:38.109Z,102094.59
2022-10-09T10:08:35.084Z,102095.53
2022-10-09T10:11:07.021Z,102095.72
2022-10-09T10:13:56.712Z,102093.97
2022-10-09T10:16:29.263Z,102089.59
2022-10-09T10:18:58.231Z,102096.72
2022-10-09T10:21:25.248Z,102088.81
2022-10-09T10:24:05.361Z,102079.09
2022-10-09T10:26:51.023Z,102081.78
2022-10-09T10:29:35.474Z,102087.13
2022-10-09T10:32:38.787Z,102086.28
2022-10-09T10:35:24.884Z,102074.81
2022-10-09T10:38:14.796Z,102082.81
2022-10-09T10:40:56.843Z,102074.00
2022-10-09T10:43:49.254Z,102071.38
2022-10-09T10:46:42.197Z,102070.47
2022-10-09T10:49:11.828Z,102058.16
2022-10-09T10:52:04.344Z,102051.09
2022-10-09T10:54:48.467Z,102057.28
2022-10-09T10:57:26.955Z,102047.56
2022-10-09T11:00:08.623Z,102044.94
2022-10-09T11:02:59.828Z,102046.69
2022-10-09T11:05:44.079Z,102037.84
2022-10-09T11:08:55.507Z,102031.66
2022-10-09T11:11:40.107Z,102029.91
2022-10-09T11:14:55.041Z,102028.13
2022-10-09T11:17:59.205Z,102028.09
2022-10-09T11:20:47.433Z,102019.25
2022-10-09T11:23:32.961Z,102013.91
2022-10-09T11:26:33.250Z,102013.88
2022-10-09T11:29:18.501Z,102005.06
2022-10-09T11:32:01.946Z,102007.69
2022-10-09T11:34:38.089Z,102008.56
2022-10-09T11:37:16.255Z,101997.03
2022-10-09T11:39:43.834Z,101988.19
2022-10-09T11:42:14.947Z,101984.59
2022-10-09T11:45:07.789Z,101985.50
2022-10-09T11:47:48.678Z,101986.38
2022-10-09T11:50:42.601Z,101981.00
2022-10-09T11:53:14.803Z,101976.56
2022-10-09T11:55:43.363Z,101978.31
2022-10-09T11:58:30.834Z,101974.72
2022-10-09T12:01:13.109Z,101963.22
2022-10-09T12:03:40.819Z,101955.25
2022-10-09T12:06:17.710Z,101951.63
2022-10-09T12:09:08.314Z,101949.03
2022-10-09T12:11:35.589Z,101937.47
2022-10-09T12:14:07.133Z,101934.84
2022-10-09T12:16:45.041Z,101932.16
2022-10-09T12:19:19.169Z,101927.66
2022-10-09T12:22:17.170Z,101921.41
2022-10-09T12:24:54.886Z,101908.06
2022-10-09T12:27:33.619Z,101911.59
2022-10-09T12:30:19.090Z,101906.22
2022-10-09T12:33:19.635Z,101899.97
2022-10-09T12:36:11.052Z,101895.50
2022-10-09T12:38:41.993Z,101894.59
2022-10-09T12:41:31.899Z,101896.31
2022-10-09T12:44:00.864Z,101899.88
2022-10-09T12:46:39.440Z,101890.00
2022-10-09T12:49:20.387Z,101878.47
2022-10-09T12:51:56.799Z,101874.91
2022-10-09T12:54:25.587Z,101862.50
2022-10-09T12:56:55.215Z,101864.28
2022-10-09T12:59:24.879Z,101850.97
2022-10-09T13:01:58.618Z,101855.34
2022-10-09T13:04:33.137Z,101846.44
2022-10-09T13:07:06.777Z,101844.63
2022-10-09T13:09:40.715Z,101843.72
2022-10-09T13:12:14.900Z,101835.69
2022-10-09T13:14:46.304Z,101833.88
2022-10-09T13:17:35.386Z,101833.81
2022-10-09T13:20:17.002Z,101833.81
2022-10-09T13:22:56.236Z,101830.28
2022-10-09T13:25:48.984Z,101820.50
2022-10-09T13:28:20.490Z,101818.75
2022-10-09T13:30:48.112Z,101808.09
2022-10-09T13:33:16.238Z,101802.75
2022-10-09T13:35:43.510Z,101807.13
2022-10-09T13:38:19.966Z,101800.91
2022-10-09T13:40:47.788Z,101806.22
2022-10-09T13:43:26.611Z,101794.69
2022-10-09T13:45:54.481Z,101797.38
2022-10-09T13:48:21.599Z,101785.84
2022-10-09T13:50:48.733Z,101781.41
2022-10-09T13:53:15.736Z,101770.75
2022-10-09T13:55:42.937Z,101769.84
2022-10-09T13:58:10.082Z,101760.97
2022-10-09T14:00:37.579Z,101762.78
2022-10-09T14:03:05.321Z,101759.22
2022-10-09T14:05:32.343Z,101753.88
2022-10-09T14:07:59.912Z,101753.88
2022-10-09T14:10:27.150Z,101744.13
2022-10-09T14:12:54.199Z,101747.69
2022-10-09T14:15:21.583Z,101737.94
2022-10-09T14:17:48.991Z,101737.03
2022-10-09T14:20:16.262Z,101735.25
2022-10-09T14:22:43.305Z,101735.25
2022-10-09T14:25:10.578Z,101721.97
2022-10-09T14:27:39.393Z,101716.63
2022-10-09T14:30:09.602Z,101722.84
2022-10-09T14:32:36.598Z,101713.09
2022-10-09T14:35:03.697Z,101708.72
2022-10-09T14:37:41.083Z,101705.19
2022-10-09T14:40:10.896Z,101690.13
2022-10-09T14:42:38.875Z,101693.72
2022-10-09T14:45:06.981Z,101690.13
2022-10-09T14:47:34.201Z,101688.38
2022-10-09T14:50:01.235Z,101681.31
2022-10-09T14:52:28.278Z,101674.22
2022-10-09T14:54:55.254Z,101673.38
2022-10-09T14:57:22.198Z,101667.19
2022-10-09T14:59:49.258Z,101672.50
2022-10-09T15:02:17.813Z,101661.88
2022-10-09T15:04:44.840Z,101652.22
2022-10-09T15:07:11.932Z,101652.25
2022-10-09T15:09:38.885Z,101635.44
2022-10-09T15:12:05.968Z,101640.78
2022-10-09T15:14:33.073Z,101636.38
2022-10-09T15:17:00.100Z,101630.25
2022-10-09T15:19:27.170Z,101627.59
2022-10-09T15:21:54.118Z,101616.13
2022-10-09T15:24:21.405Z,101615.28
2022-10-09T15:26:48.598Z,101613.56
2022-10-09T15:29:16.762Z,101613.59
2022-10-09T15:31:44.180Z,101603.03
2022-10-09T15:34:18.525Z,101602.16
2022-10-09T15:36:48.537Z,101597.75
2022-10-09T15:39:16.424Z,101599.66
2022-10-09T15:41:44.259Z,101601.53
2022-10-09T15:44:20.294Z,101599.81
2022-10-09T15:46:48.886Z,101593.69
2022-10-09T15:49:16.162Z,101592.84
2022-10-09T15:51:44.344Z,101584.91
2022-10-09T15:54:16.198Z,101585.84
2022-10-09T15:56:45.908Z,101581.44
2022-10-09T15:59:19.058Z,101575.28
2022-10-09T16:01:49.064Z,101572.63
2022-10-09T16:04:16.223Z,101567.31
2022-10-09T16:06:43.236Z,101558.53
2022-10-09T16:09:10.383Z,101557.72
2022-10-09T16:11:37.503Z,101547.25
2022-10-09T16:14:05.101Z,101545.59
2022-10-09T16:16:32.147Z,101542.13
2022-10-09T16:19:00.801Z,101544.88
2022-10-09T16:21:29.072Z,101545.84
2022-10-09T16:23:59.416Z,101538.84
2022-10-09T16:26:29.510Z,101539.81
2022-10-09T16:28:59.081Z,101542.63
2022-10-09T16:31:30.707Z,101532.94
2022-10-09T16:33:58.288Z,101527.72
2022-10-09T16:36:25.371Z,101526.03
2022-10-09T16:38:52.680Z,101527.88
2022-10-09T16:41:22.578Z,101520.03
2022-10-09T16:43:55.149Z,101528.91
2022-10-09T16:49:02.980Z,101516.72
2022-10-09T16:51:36.351Z,101513.25
2022-10-09T16:54:06.155Z,101510.63
2022-10-09T16:56:37.682Z,101505.41
2022-10-09T16:59:10.272Z,101506.31
2022-10-09T17:01:42.418Z,101516.06
2022-10-09T17:04:10.966Z,101514.34
2022-10-09T17:06:41.453Z,101511.72
2022-10-09T17:09:14.020Z,101517.06
2022-10-09T17:11:41.660Z,101512.66
2022-10-09T17:14:08.657Z,101508.25
2022-10-09T17:16:40.641Z,101503.00
2022-10-09T17:19:08.092Z,101507.44
2022-10-09T17:21:35.624Z,101499.50
2022-10-09T17:24:04.365Z,101505.69
2022-10-09T17:26:31.434Z,101504.81
2022-10-09T17:29:00.087Z,101512.72
2022-10-09T17:31:29.064Z,101506.59
2022-10-09T17:34:00.435Z,101504.81
2022-10-09T17:36:31.415Z,101505.69
2022-10-09T17:38:59.226Z,101500.41
2022-10-09T17:41:27.418Z,101503.94
2022-10-09T17:43:56.611Z,101502.16
2022-10-09T17:46:25.834Z,101505.66
2022-10-09T17:49:00.093Z,101503.91
2022-10-09T17:51:34.524Z,101505.66
2022-10-09T17:54:09.554Z,101499.47
2022-10-09T17:56:39.525Z,101508.28
2022-10-09T17:59:07.311Z,101502.09
2022-10-09T18:01:35.185Z,101494.13
2022-10-09T18:04:02.894Z,101487.06
2022-10-09T18:06:34.098Z,101489.72
2022-10-09T18:09:02.120Z,101486.16
2022-10-09T18:11:30.065Z,101479.13
2022-10-09T18:13:57.749Z,101477.38
2022-10-09T18:16:35.910Z,101481.78
2022-10-09T18:19:08.695Z,101481.75
2022-10-09T18:21:35.826Z,101473.84
2022-10-09T18:24:03.263Z,101474.69
2022-10-09T18:26:30.422Z,101473.81
2022-10-09T18:28:59.373Z,101472.00
2022-10-09T18:31:28.099Z,101466.75
2022-10-09T18:33:55.145Z,101472.88
2022-10-09T18:36:24.855Z,101468.47
2022-10-09T18:38:55.452Z,101465.81
2022-10-09T18:41:24.049Z,101460.50
2022-10-09T18:43:52.286Z,101460.47
2022-10-09T18:46:24.625Z,101462.22
2022-10-09T18:48:54.229Z,101456.03
2022-10-09T18:51:26.010Z,101457.78
2022-10-09T18:54:00.007Z,101453.34
2022-10-09T18:56:30.739Z,101452.44
2022-10-09T18:59:00.444Z,101450.69
2022-10-09T19:01:27.538Z,101452.41
2022-10-09T19:03:54.562Z,101449.75
2022-10-09T19:14:36.519Z,101450.47
2022-10-09T19:17:03.585Z,101448.72
2022-10-09T19:19:30.702Z,101439.94
2022-10-09T19:21:58.668Z,101433.75
2022-10-09T19:24:25.941Z,101441.63
2022-10-09T19:26:52.911Z,101431.88
2022-10-09T19:29:20.009Z,101438.91
2022-10-09T19:31:47.079Z,101436.25
2022-10-09T19:34:14.074Z,101436.22
2022-10-09T19:36:41.379Z,101434.44
2022-10-09T19:39:08.890Z,101430.00
2022-10-09T19:41:37.837Z,101436.16
2022-10-09T19:44:05.085Z,101430.00
2022-10-09T19:46:32.054Z,101422.97
2022-10-09T19:48:59.252Z,101429.13
2022-10-09T19:51:27.567Z,101422.09
2022-10-09T19:53:54.993Z,101423.78
2022-10-09T19:56:26.204Z,101424.66
2022-10-09T19:58:54.855Z,101424.66
2022-10-09T20:01:27.018Z,101425.47
2022-10-09T20:04:00.864Z,101417.56
2022-10-09T20:06:28.534Z,101425.41
2022-10-09T20:08:56.297Z,101428.91
2022-10-09T20:11:25.547Z,101429.72
2022-10-09T20:13:55.987Z,101428.81
2022-10-09T20:16:25.428Z,101421.75
2022-10-09T20:18:53.973Z,101427.88
2022-10-09T20:21:21.010Z,101432.25
2022-10-09T20:23:48.573Z,101430.47
2022-10-09T20:26:18.856Z,101426.91
2022-10-09T20:28:48.101Z,101420.78
2022-10-09T20:31:19.867Z,101418.94
2022-10-09T20:33:49.266Z,101423.31
2022-10-09T20:36:27.680Z,101414.47
2022-10-09T20:38:57.780Z,101407.44
2022-10-09T20:41:26.105Z,101408.31
2022-10-09T20:43:55.179Z,101406.50
2022-10-09T20:46:24.291Z,101403.84
2022-10-09T20:48:52.563Z,101408.16
2022-10-09T20:51:20.470Z,101405.50
2022-10-09T20:53:56.262Z,101401.97
2022-10-09T20:56:25.921Z,101398.41
2022-10-09T20:58:53.829Z,101394.88
2022-10-09T21:01:21.263Z,101397.44
2022-10-09T21:03:48.389Z,101395.66
2022-10-09T21:06:19.080Z,101392.97
2022-10-09T21:08:46.611Z,101392.06
2022-10-09T21:11:17.179Z,101390.31
2022-10-09T21:13:45.465Z,101392.06
2022-10-09T21:16:17.982Z,101397.25
2022-10-09T21:18:44.963Z,101395.47
2022-10-09T21:21:15.836Z,101391.97
2022-10-09T21:23:44.309Z,101391.88
2022-10-09T21:26:17.493Z,101381.44
2022-10-09T21:28:45.724Z,101379.63
2022-10-09T21:31:22.713Z,101377.00
2022-10-09T21:33:50.419Z,101380.47
2022-10-09T21:36:51.148Z,101383.97
2022-10-09T21:39:26.741Z,101383.97
2022-10-09T21:41:53.653Z,101381.28
2022-10-09T21:44:20.879Z,101377.72
2022-10-09T21:46:47.960Z,101372.44
2022-10-09T21:49:27.448Z,101368.00
2022-10-09T21:51:55.191Z,101370.59
2022-10-09T21:54:22.527Z,101370.59
2022-10-09T21:56:49.684Z,101364.38
2022-10-09T21:59:16.667Z,101362.63
2022-10-09T22:01:43.756Z,101362.59
2022-10-09T22:04:10.871Z,101362.59
2022-10-09T22:06:37.908Z,101366.91
2022-10-09T22:09:04.828Z,101354.63
2022-10-09T22:11:31.802Z,101351.09
2022-10-09T22:13:58.805Z,101350.16
2022-10-09T22:16:25.876Z,101345.75
2022-10-09T22:18:53.017Z,101348.38
2022-10-09T22:21:20.129Z,101346.63
2022-10-09T22:23:47.247Z,101336.91
2022-10-09T22:26:18.997Z,101343.00
2022-10-09T22:28:47.463Z,101338.59
2022-10-09T22:31:20.278Z,101331.56
2022-10-09T22:34:05.809Z,101335.00
2022-10-09T22:36:33.918Z,101332.34
2022-10-09T22:39:04.372Z,101327.06
2022-10-09T22:41:34.175Z,101326.16
2022-10-09T22:44:02.207Z,101320.88
2022-10-09T22:46:33.882Z,101326.13
2022-10-09T22:49:01.576Z,101326.06
2022-10-09T22:51:29.959Z,101322.53
2022-10-09T22:53:59.134Z,101324.25
2022-10-09T22:56:33.477Z,101322.44
2022-10-09T22:59:00.989Z,101317.16
2022-10-09T23:01:40.400Z,101310.13
2022-10-09T23:04:12.229Z,101315.31
2022-10-09T23:06:40.215Z,101307.41
2022-10-09T23:09:10.770Z,101311.75
2022-10-09T23:11:37.821Z,101317.88
2022-10-09T23:14:05.589Z,101305.63
2022-10-09T23:16:33.432Z,101314.31
2022-10-09T23:19:06.515Z,101316.91
2022-10-09T23:21:35.015Z,101311.66
2022-10-09T23:24:02.645Z,101310.75
2022-10-09T23:26:31.891Z,101308.97
2022-10-09T23:29:06.372Z,101321.16
2022-10-09T23:31:34.591Z,101312.38
2022-10-09T23:34:03.612Z,101300.91
2022-10-09T23:36:31.231Z,101301.78
2022-10-09T23:39:00.905Z,101291.25
2022-10-09T23:41:29.018Z,101297.28
2022-10-09T23:43:56.452Z,101299.88
2022-10-09T23:46:27.453Z,101299.00
2022-10-09T23:48:55.309Z,101300.72
2022-10-09T23:51:24.532Z,101296.28
2022-10-09T23:53:52.253Z,101291.88
2022-10-09T23:56:31.624Z,101287.47
2022-10-09T23:59:00.964Z,101290.91
